Avisos AEMET Campiña SevillanaSin Avisos+ INFO
Sevilla, Andalucía, España
Sprache: de English Français Deutsch Italiano Português Español
 

Nearby METAR Reports

 

LEZL - Sevilla, Spain
Distance from station: ONO 8km
aktuell: 03/03/2024 09:30
klar
klar
 Wind von W
Wind: W 11 km/h
Temperatur: 9°C
Wind Chill: 7°C
Taupunkt: 6°C
Luftfeuchte: 82%
Luftdruck: 1017 hPa
Zusammenfassung: klar
Visibility: greater than 10 km
2024/03/03 08:30 LEZL 030830Z 28006KT CAVOK 09/06 Q1017 NOSIG
LEMO - Morón, Spain
Distance from station: SO 43km
aktuell: 03/03/2024 09:30
klar
klar
 Wind von WSW
Wind: WSW 9 km/h
Temperatur: 8°C
Wind Chill: 6°C
Taupunkt: 7°C
Luftfeuchte: 93%
Luftdruck: 1017 hPa
Zusammenfassung: klar
Visibility: greater than 10 km
2024/03/03 08:30 LEMO 030830Z 24005KT 210V280 CAVOK 08/07 Q1017 NOSIG
LEJR - Jeréz, Spain
Distance from station: S 71km
aktuell: 03/03/2024 09:30
klar
klar
 Wind von varies
Wind: varies 2 km/h
Temperatur: 9°C
Taupunkt: 7°C
Luftfeuchte: 87%
Luftdruck: 1018 hPa
Zusammenfassung: klar
Visibility: greater than 10 km
2024/03/03 08:30 LEJR 030830Z VRB01KT CAVOK 09/07 Q1018
 
LERT - Rota, Spain
Distance from station: SSW 89km
aktuell: 03/03/2024 09:30
Few Clouds
Few Clouds
 Wind von NW
Wind: NW 17 km/h
Temperatur: 13°C
Taupunkt: 6°C
Luftfeuchte: 63%
Luftdruck: 1018 hPa
Clouds: Few Clouds
Visibility: 10 km
Cloud details: Few Clouds 884 m
2024/03/03 08:30 LERT 030830Z 31009KT 280V350 9999 FEW029 13/06 Q1018 NOSIG
LEMG - Málaga, Spain
Distance from station: OSO 157km
aktuell: 03/03/2024 09:30
Few Clouds
Few Clouds
 Wind von WNW
Wind: WNW 13 km/h
Temperatur: 11°C
Taupunkt: 3°C
Luftfeuchte: 58%
Luftdruck: 1016 hPa
Clouds: Few Clouds
Visibility: 10 km
Cloud details: Few Clouds 1158 m
2024/03/03 08:30 LEMG 030830Z 30007KT 260V330 9999 FEW038 11/03 Q1016 NOSIG
LEBA - Córdoba, Spain
Distance from station: ONO 115km
aktuell: 03/03/2024 09:30
Few Clouds
Few Clouds
 Wind von WSW
Wind: WSW 15 km/h
Temperatur: 9°C
Wind Chill: 7°C
Taupunkt: 5°C
Luftfeuchte: 76%
Luftdruck: 1016 hPa
Clouds: Few Clouds
Visibility: 10 km
Cloud details: Few Clouds 1006 m
2024/03/03 08:30 LEBA 030830Z 25008KT 220V290 9999 FEW033 09/05 Q1016
 
LEGR - Granada, Spain
Distance from station: O 198km
aktuell: 03/03/2024 09:30
stark bewölkt
stark bewölkt
 Wind von WNW
Wind: WNW 11 km/h
Temperatur: 6°C
Wind Chill: 4°C
Taupunkt: 3°C
Luftfeuchte: 81%
Luftdruck: 1015 hPa
Clouds: stark bewölkt
Visibility: 10 km
Cloud details: stark bewölkt 1067 m
2024/03/03 08:30 LEGR 030830Z 30006KT 270V330 9999 BKN035 06/03 Q1015
LEAM - Almería, Spain
Distance from station: O 326km
aktuell: 03/03/2024 09:30
klar
klar
 Wind von NW
Wind: NW 30 km/h
Temperatur: 15°C
Taupunkt: -2°C
Luftfeuchte: 31%
Luftdruck: 1011 hPa
Zusammenfassung: klar
Visibility: greater than 10 km
2024/03/03 08:30 LEAM 030830Z 31016KT 280V340 CAVOK 15/M02 Q1011
LEMD - Madrid/Barajas, Spain
Distance from station: NNO 402km
aktuell: 03/03/2024 09:30
klar
klar
 Wind von W
Wind: W 30 km/h
Temperatur: 5°C
Wind Chill: 0°C
Taupunkt: -2°C
Luftfeuchte: 61%
Luftdruck: 1009 hPa
Zusammenfassung: klar
Visibility: greater than 10 km
2024/03/03 08:30 LEMD 030830Z 26016KT 240V300 CAVOK 05/M02 Q1009 NOSIG
 
LEVD - Valladolid, Spain
Distance from station: N 492km
aktuell: 03/03/2024 09:30
stark bewölkt
stark bewölkt
 Wind von W
Wind: W 26 km/h
Temperatur: 0°C
Wind Chill: -6°C
Taupunkt: -1°C
Luftfeuchte: 93%
Luftdruck: 1009 hPa
Clouds: stark bewölkt
Visibility: 10 km
Cloud details: Few Clouds 213 m
stark bewölkt 1036 m
2024/03/03 08:30 LEVD 030830Z 27014KT 9999 FEW007 BKN034 00/M01 Q1009
LEBL - Barcelona, Spain
Distance from station: NO 816km
aktuell: 03/03/2024 09:30
sehr leichter Niederschlag, stark bewölkt
sehr leichter Niederschlag, stark bewölkt
 Wind von W
Wind: W 6 km/h
Temperatur: 6°C
Taupunkt: 4°C
Luftfeuchte: 87%
Luftdruck: 1001 hPa
Zusammenfassung: sehr leichter Niederschlag
Clouds: stark bewölkt
Visibility: 10 km
Cloud details: Few Clouds 610 m
teilweise bewölkt 1036 m
stark bewölkt 1219 m
2024/03/03 08:30 LEBL 030830Z 28003KT 240V320 9999 -RA FEW020TCU SCT034 BKN040 06/04 Q1001 TEMPO 4000 SHRA
LEVC - Valencia, Spain
Distance from station: ONO 535km
aktuell: 03/03/2024 09:30
Few Clouds
Few Clouds
 Wind von W
Wind: W 37 km/h
Temperatur: 10°C
Wind Chill: 6°C
Taupunkt: 0°C
Luftfeuchte: 50%
Luftdruck: 1007 hPa
Clouds: Few Clouds
Visibility: 10 km
Cloud details: Few Clouds 914 m
2024/03/03 08:30 LEVC 030830Z 26020KT 9999 FEW030 10/M00 Q1007 NOSIG